sensor_id;sensor_type;location;lat;lon;timestamp;pressure;altitude;pressure_sealevel;temperature;humidity
18795;BME280;29610;49.022;12.114;2023-01-16T00:02:24;96762.06;;;3.55;100.00
18795;BME280;29610;49.022;12.114;2023-01-16T00:04:54;96761.56;;;3.53;100.00
18795;BME280;29610;49.022;12.114;2023-01-16T00:07:22;96753.72;;;3.43;100.00
18795;BME280;29610;49.022;12.114;2023-01-16T00:09:51;96755.47;;;3.34;100.00
18795;BME280;29610;49.022;12.114;2023-01-16T00:12:20;96744.75;;;3.34;100.00
18795;BME280;29610;49.022;12.114;2023-01-16T00:14:49;96741.75;;;3.35;100.00
18795;BME280;29610;49.022;12.114;2023-01-16T00:17:17;96742.44;;;3.27;100.00
18795;BME280;29610;49.022;12.114;2023-01-16T00:19:46;96736.91;;;3.24;100.00
18795;BME280;29610;49.022;12.114;2023-01-16T00:22:16;96729.13;;;3.22;100.00
18795;BME280;29610;49.022;12.114;2023-01-16T00:24:44;96722.06;;;3.13;100.00
18795;BME280;29610;49.022;12.114;2023-01-16T00:27:13;96726.34;;;3.14;100.00
18795;BME280;29610;49.022;12.114;2023-01-16T00:29:42;96728.13;;;3.05;100.00
18795;BME280;29610;49.022;12.114;2023-01-16T00:32:10;96721.75;;;3.00;100.00
18795;BME280;29610;49.022;12.114;2023-01-16T00:34:40;96725.84;;;2.98;100.00
18795;BME280;29610;49.022;12.114;2023-01-16T00:37:09;96719.84;;;2.87;100.00
18795;BME280;29610;49.022;12.114;2023-01-16T00:39:39;96722.03;;;2.85;100.00
18795;BME280;29610;49.022;12.114;2023-01-16T00:42:08;96720.63;;;2.88;100.00
18795;BME280;29610;49.022;12.114;2023-01-16T00:44:36;96717.75;;;2.84;100.00
18795;BME280;29610;49.022;12.114;2023-01-16T00:47:05;96726.91;;;2.83;100.00
18795;BME280;29610;49.022;12.114;2023-01-16T00:49:33;96720.44;;;2.84;100.00
18795;BME280;29610;49.022;12.114;2023-01-16T00:52:03;96711.47;;;2.75;100.00
18795;BME280;29610;49.022;12.114;2023-01-16T00:54:31;96718.13;;;2.78;100.00
18795;BME280;29610;49.022;12.114;2023-01-16T00:57:02;96721.53;;;2.83;100.00
18795;BME280;29610;49.022;12.114;2023-01-16T00:59:30;96711.78;;;2.87;100.00
18795;BME280;29610;49.022;12.114;2023-01-16T01:01:59;96710.41;;;2.90;100.00
18795;BME280;29610;49.022;12.114;2023-01-16T01:04:28;96703.56;;;2.97;100.00
18795;BME280;29610;49.022;12.114;2023-01-16T01:06:57;96710.84;;;3.11;100.00
18795;BME280;29610;49.022;12.114;2023-01-16T01:09:26;96702.78;;;3.11;100.00
18795;BME280;29610;49.022;12.114;2023-01-16T01:11:56;96709.22;;;3.10;100.00
18795;BME280;29610;49.022;12.114;2023-01-16T01:14:26;96708.44;;;3.23;100.00
18795;BME280;29610;49.022;12.114;2023-01-16T01:16:55;96703.88;;;3.23;100.00
18795;BME280;29610;49.022;12.114;2023-01-16T01:19:24;96695.72;;;3.28;100.00
18795;BME280;29610;49.022;12.114;2023-01-16T01:21:53;96687.97;;;3.27;100.00
18795;BME280;29610;49.022;12.114;2023-01-16T01:24:22;96695.63;;;3.20;100.00
18795;BME280;29610;49.022;12.114;2023-01-16T01:26:50;96684.38;;;3.18;100.00
18795;BME280;29610;49.022;12.114;2023-01-16T01:29:19;96680.09;;;3.17;100.00
18795;BME280;29610;49.022;12.114;2023-01-16T01:31:49;96682.13;;;3.11;100.00
18795;BME280;29610;49.022;12.114;2023-01-16T01:34:17;96675.63;;;3.12;100.00
18795;BME280;29610;49.022;12.114;2023-01-16T01:36:46;96673.66;;;3.04;100.00
18795;BME280;29610;49.022;12.114;2023-01-16T01:39:15;96670.75;;;2.87;100.00
18795;BME280;29610;49.022;12.114;2023-01-16T01:41:43;96663.47;;;2.87;100.00
18795;BME280;29610;49.022;12.114;2023-01-16T01:44:49;96661.91;;;2.86;100.00
18795;BME280;29610;49.022;12.114;2023-01-16T01:47:23;96657.94;;;2.84;100.00
18795;BME280;29610;49.022;12.114;2023-01-16T01:49:56;96647.47;;;2.82;100.00
18795;BME280;29610;49.022;12.114;2023-01-16T01:52:29;96645.38;;;2.79;100.00
18795;BME280;29610;49.022;12.114;2023-01-16T01:55:04;96646.09;;;2.85;100.00
18795;BME280;29610;49.022;12.114;2023-01-16T01:57:38;96633.28;;;2.82;100.00
18795;BME280;29610;49.022;12.114;2023-01-16T02:00:12;96629.59;;;2.78;100.00
18795;BME280;29610;49.022;12.114;2023-01-16T02:02:50;96625.31;;;2.90;100.00
18795;BME280;29610;49.022;12.114;2023-01-16T02:05:28;96613.81;;;2.90;100.00
18795;BME280;29610;49.022;12.114;2023-01-16T02:07:57;96604.16;;;3.03;100.00
18795;BME280;29610;49.022;12.114;2023-01-16T02:10:36;96591.16;;;2.96;100.00
18795;BME280;29610;49.022;12.114;2023-01-16T02:13:07;96599.41;;;2.99;100.00
18795;BME280;29610;49.022;12.114;2023-01-16T02:15:37;96595.50;;;3.06;100.00
18795;BME280;29610;49.022;12.114;2023-01-16T02:18:29;96595.50;;;3.06;100.00
18795;BME280;29610;49.022;12.114;2023-01-16T02:24:55;96575.13;;;3.18;100.00
18795;BME280;29610;49.022;12.114;2023-01-16T02:27:56;96570.13;;;3.25;100.00
18795;BME280;29610;49.022;12.114;2023-01-16T02:31:03;96557.47;;;3.39;100.00
18795;BME280;29610;49.022;12.114;2023-01-16T02:33:58;96550.44;;;3.30;100.00
18795;BME280;29610;49.022;12.114;2023-01-16T02:36:43;96544.53;;;3.41;100.00
18795;BME280;29610;49.022;12.114;2023-01-16T02:39:30;96539.28;;;3.36;100.00
18795;BME280;29610;49.022;12.114;2023-01-16T02:42:12;96538.91;;;3.29;100.00
18795;BME280;29610;49.022;12.114;2023-01-16T02:44:50;96535.44;;;3.29;100.00
18795;BME280;29610;49.022;12.114;2023-01-16T02:47:29;96533.88;;;3.14;100.00
18795;BME280;29610;49.022;12.114;2023-01-16T02:50:15;96531.44;;;3.26;100.00
18795;BME280;29610;49.022;12.114;2023-01-16T02:52:52;96522.03;;;3.15;100.00
18795;BME280;29610;49.022;12.114;2023-01-16T02:55:29;96521.63;;;3.08;100.00
18795;BME280;29610;49.022;12.114;2023-01-16T02:58:04;96517.06;;;3.09;100.00
18795;BME280;29610;49.022;12.114;2023-01-16T03:00:34;96512.63;;;2.90;100.00
18795;BME280;29610;49.022;12.114;2023-01-16T03:03:05;96507.06;;;3.00;100.00
18795;BME280;29610;49.022;12.114;2023-01-16T03:05:43;96496.41;;;2.95;100.00
18795;BME280;29610;49.022;12.114;2023-01-16T03:08:36;96498.81;;;2.97;100.00
18795;BME280;29610;49.022;12.114;2023-01-16T03:11:16;96491.06;;;2.95;100.00
18795;BME280;29610;49.022;12.114;2023-01-16T03:14:14;96479.13;;;3.02;100.00
18795;BME280;29610;49.022;12.114;2023-01-16T03:17:07;96477.16;;;2.93;100.00
18795;BME280;29610;49.022;12.114;2023-01-16T03:19:55;96468.22;;;2.98;100.00
18795;BME280;29610;49.022;12.114;2023-01-16T03:22:37;96463.63;;;2.98;100.00
18795;BME280;29610;49.022;12.114;2023-01-16T03:25:28;96458.97;;;2.90;100.00
18795;BME280;29610;49.022;12.114;2023-01-16T03:28:10;96458.38;;;2.93;100.00
18795;BME280;29610;49.022;12.114;2023-01-16T03:30:50;96449.84;;;2.91;100.00
18795;BME280;29610;49.022;12.114;2023-01-16T03:33:31;96441.91;;;2.86;100.00
18795;BME280;29610;49.022;12.114;2023-01-16T03:36:16;96441.78;;;2.91;100.00
18795;BME280;29610;49.022;12.114;2023-01-16T03:38:50;96432.63;;;2.92;100.00
18795;BME280;29610;49.022;12.114;2023-01-16T03:41:24;96425.50;;;2.74;100.00
18795;BME280;29610;49.022;12.114;2023-01-16T03:44:02;96421.44;;;2.77;100.00
18795;BME280;29610;49.022;12.114;2023-01-16T03:46:39;96415.22;;;2.68;100.00
18795;BME280;29610;49.022;12.114;2023-01-16T03:49:13;96413.84;;;2.57;100.00
18795;BME280;29610;49.022;12.114;2023-01-16T03:51:47;96410.38;;;2.56;100.00
18795;BME280;29610;49.022;12.114;2023-01-16T03:54:30;96408.00;;;2.55;100.00
18795;BME280;29610;49.022;12.114;2023-01-16T03:57:09;96402.84;;;2.45;100.00
18795;BME280;29610;49.022;12.114;2023-01-16T03:59:43;96393.63;;;2.37;100.00
18795;BME280;29610;49.022;12.114;2023-01-16T04:02:18;96390.13;;;2.37;100.00
18795;BME280;29610;49.022;12.114;2023-01-16T04:04:55;96380.31;;;2.32;100.00
18795;BME280;29610;49.022;12.114;2023-01-16T04:07:33;96386.09;;;2.26;100.00
18795;BME280;29610;49.022;12.114;2023-01-16T04:10:06;96375.06;;;2.27;100.00
18795;BME280;29610;49.022;12.114;2023-01-16T04:12:47;96370.91;;;2.21;100.00
18795;BME280;29610;49.022;12.114;2023-01-16T04:15:19;96367.44;;;2.21;100.00
18795;BME280;29610;49.022;12.114;2023-01-16T04:17:49;96363.84;;;2.25;100.00
18795;BME280;29610;49.022;12.114;2023-01-16T04:20:18;96352.84;;;2.13;100.00
18795;BME280;29610;49.022;12.114;2023-01-16T04:22:49;96341.53;;;2.16;100.00
18795;BME280;29610;49.022;12.114;2023-01-16T04:25:19;96337.84;;;2.12;100.00
18795;BME280;29610;49.022;12.114;2023-01-16T04:27:48;96327.63;;;2.14;100.00
18795;BME280;29610;49.022;12.114;2023-01-16T04:30:17;96328.03;;;2.08;100.00
18795;BME280;29610;49.022;12.114;2023-01-16T04:32:46;96309.81;;;1.96;100.00
18795;BME280;29610;49.022;12.114;2023-01-16T04:35:14;96312.19;;;1.98;100.00
18795;BME280;29610;49.022;12.114;2023-01-16T04:37:43;96294.59;;;2.05;100.00
18795;BME280;29610;49.022;12.114;2023-01-16T04:40:14;96292.72;;;2.06;100.00
18795;BME280;29610;49.022;12.114;2023-01-16T04:42:42;96282.31;;;2.04;100.00
18795;BME280;29610;49.022;12.114;2023-01-16T04:45:13;96278.53;;;2.05;100.00
18795;BME280;29610;49.022;12.114;2023-01-16T04:47:45;96272.97;;;2.02;100.00
18795;BME280;29610;49.022;12.114;2023-01-16T04:50:15;96261.88;;;1.95;100.00
18795;BME280;29610;49.022;12.114;2023-01-16T04:52:45;96261.59;;;1.96;100.00
18795;BME280;29610;49.022;12.114;2023-01-16T04:55:16;96263.16;;;1.97;100.00
18795;BME280;29610;49.022;12.114;2023-01-16T04:57:44;96263.16;;;1.97;100.00
18795;BME280;29610;49.022;12.114;2023-01-16T05:00:14;96255.63;;;1.86;100.00
18795;BME280;29610;49.022;12.114;2023-01-16T05:02:43;96260.69;;;1.87;100.00
18795;BME280;29610;49.022;12.114;2023-01-16T05:05:12;96260.31;;;1.80;100.00
18795;BME280;29610;49.022;12.114;2023-01-16T05:07:40;96248.22;;;1.83;100.00
18795;BME280;29610;49.022;12.114;2023-01-16T05:10:10;96252.56;;;1.92;100.00
18795;BME280;29610;49.022;12.114;2023-01-16T05:12:40;96242.44;;;1.89;100.00
18795;BME280;29610;49.022;12.114;2023-01-16T05:15:10;96241.28;;;1.68;100.00
18795;BME280;29610;49.022;12.114;2023-01-16T05:17:39;96243.25;;;1.76;100.00
18795;BME280;29610;49.022;12.114;2023-01-16T05:20:10;96239.19;;;1.79;100.00
18795;BME280;29610;49.022;12.114;2023-01-16T05:22:38;96230.47;;;1.73;100.00
18795;BME280;29610;49.022;12.114;2023-01-16T05:25:07;96229.59;;;1.64;100.00
18795;BME280;29610;49.022;12.114;2023-01-16T05:27:36;96227.91;;;1.68;100.00
18795;BME280;29610;49.022;12.114;2023-01-16T05:30:08;96233.06;;;1.65;100.00
18795;BME280;29610;49.022;12.114;2023-01-16T05:32:37;96216.50;;;1.63;100.00
18795;BME280;29610;49.022;12.114;2023-01-16T05:35:07;96216.22;;;1.64;100.00
18795;BME280;29610;49.022;12.114;2023-01-16T05:37:35;96207.69;;;1.62;100.00
18795;BME280;29610;49.022;12.114;2023-01-16T05:40:05;96205.59;;;1.59;100.00
18795;BME280;29610;49.022;12.114;2023-01-16T05:42:34;96196.09;;;1.53;100.00
18795;BME280;29610;49.022;12.114;2023-01-16T05:45:04;96188.94;;;1.48;100.00
18795;BME280;29610;49.022;12.114;2023-01-16T05:47:34;96174.00;;;1.47;100.00
18795;BME280;29610;49.022;12.114;2023-01-16T05:50:04;96190.84;;;1.48;100.00
18795;BME280;29610;49.022;12.114;2023-01-16T05:52:33;96188.06;;;1.53;100.00
18795;BME280;29610;49.022;12.114;2023-01-16T05:55:02;96180.91;;;1.48;100.00
18795;BME280;29610;49.022;12.114;2023-01-16T05:57:31;96178.25;;;1.48;100.00
18795;BME280;29610;49.022;12.114;2023-01-16T05:59:59;96167.97;;;1.42;100.00
18795;BME280;29610;49.022;12.114;2023-01-16T06:02:31;96170.81;;;1.45;100.00
18795;BME280;29610;49.022;12.114;2023-01-16T06:05:01;96164.50;;;1.41;100.00
18795;BME280;29610;49.022;12.114;2023-01-16T06:07:31;96169.66;;;1.38;100.00
18795;BME280;29610;49.022;12.114;2023-01-16T06:10:00;96162.63;;;1.28;100.00
18795;BME280;29610;49.022;12.114;2023-01-16T06:12:29;96164.09;;;1.34;100.00
18795;BME280;29610;49.022;12.114;2023-01-16T06:14:59;96155.38;;;1.29;100.00
18795;BME280;29610;49.022;12.114;2023-01-16T06:17:30;96153.69;;;1.33;100.00
18795;BME280;29610;49.022;12.114;2023-01-16T06:20:00;96144.09;;;1.32;100.00
18795;BME280;29610;49.022;12.114;2023-01-16T06:22:29;96137.44;;;1.29;100.00
18795;BME280;29610;49.022;12.114;2023-01-16T06:24:57;96142.38;;;1.36;100.00
18795;BME280;29610;49.022;12.114;2023-01-16T06:27:26;96135.34;;;1.40;100.00
18795;BME280;29610;49.022;12.114;2023-01-16T06:29:55;96123.94;;;1.34;100.00
18795;BME280;29610;49.022;12.114;2023-01-16T06:32:24;96118.91;;;1.33;100.00
18795;BME280;29610;49.022;12.114;2023-01-16T06:34:54;96116.22;;;1.33;100.00
18795;BME280;29610;49.022;12.114;2023-01-16T06:37:24;96121.78;;;1.36;100.00
18795;BME280;29610;49.022;12.114;2023-01-16T06:39:53;96112.47;;;1.34;100.00
18795;BME280;29610;49.022;12.114;2023-01-16T06:42:24;96103.94;;;1.32;100.00
18795;BME280;29610;49.022;12.114;2023-01-16T06:44:53;96096.53;;;1.29;100.00
18795;BME280;29610;49.022;12.114;2023-01-16T06:47:22;96094.91;;;1.28;100.00
18795;BME280;29610;49.022;12.114;2023-01-16T06:49:51;96092.84;;;1.25;100.00
18795;BME280;29610;49.022;12.114;2023-01-16T06:52:20;96087.28;;;1.21;100.00
18795;BME280;29610;49.022;12.114;2023-01-16T06:54:50;96074.81;;;1.30;100.00
18795;BME280;29610;49.022;12.114;2023-01-16T06:57:19;96069.25;;;1.27;100.00
18795;BME280;29610;49.022;12.114;2023-01-16T06:59:49;96066.28;;;1.28;100.00
18795;BME280;29610;49.022;12.114;2023-01-16T07:02:19;96059.78;;;1.21;100.00
18795;BME280;29610;49.022;12.114;2023-01-16T07:04:47;96057.56;;;1.23;100.00
18795;BME280;29610;49.022;12.114;2023-01-16T07:07:16;96056.69;;;1.14;100.00
18795;BME280;29610;49.022;12.114;2023-01-16T07:09:45;96054.78;;;1.28;100.00
18795;BME280;29610;49.022;12.114;2023-01-16T07:12:15;96053.22;;;1.27;100.00
18795;BME280;29610;49.022;12.114;2023-01-16T07:14:44;96040.03;;;1.30;100.00
18795;BME280;29610;49.022;12.114;2023-01-16T07:17:30;96042.28;;;1.37;100.00
18795;BME280;29610;49.022;12.114;2023-01-16T07:20:17;96038.88;;;1.45;100.00
18795;BME280;29610;49.022;12.114;2023-01-16T07:23:18;96037.84;;;1.55;100.00
18795;BME280;29610;49.022;12.114;2023-01-16T07:25:48;96031.91;;;1.58;100.00
18795;BME280;29610;49.022;12.114;2023-01-16T07:28:20;96027.63;;;1.57;100.00
18795;BME280;29610;49.022;12.114;2023-01-16T07:30:50;96015.44;;;1.50;100.00
18795;BME280;29610;49.022;12.114;2023-01-16T07:33:19;96009.97;;;1.56;100.00
18795;BME280;29610;49.022;12.114;2023-01-16T07:35:47;96005.13;;;1.58;100.00
18795;BME280;29610;49.022;12.114;2023-01-16T07:38:16;96009.75;;;1.66;100.00
18795;BME280;29610;49.022;12.114;2023-01-16T07:40:45;95999.03;;;1.66;100.00
18795;BME280;29610;49.022;12.114;2023-01-16T07:43:14;95998.41;;;1.69;100.00
18795;BME280;29610;49.022;12.114;2023-01-16T07:45:44;95986.91;;;1.68;100.00
18795;BME280;29610;49.022;12.114;2023-01-16T07:48:19;95985.00;;;1.91;100.00
18795;BME280;29610;49.022;12.114;2023-01-16T07:50:52;95972.28;;;1.96;100.00
18795;BME280;29610;49.022;12.114;2023-01-16T07:53:23;95963.69;;;1.86;100.00
18795;BME280;29610;49.022;12.114;2023-01-16T07:55:55;95960.75;;;1.96;100.00
18795;BME280;29610;49.022;12.114;2023-01-16T07:58:24;95951.19;;;2.03;100.00
18795;BME280;29610;49.022;12.114;2023-01-16T08:00:57;95946.44;;;2.00;100.00
18795;BME280;29610;49.022;12.114;2023-01-16T08:03:26;95940.94;;;2.05;100.00
18795;BME280;29610;49.022;12.114;2023-01-16T08:05:55;95935.78;;;2.09;100.00
18795;BME280;29610;49.022;12.114;2023-01-16T08:08:25;95927.25;;;2.07;100.00
18795;BME280;29610;49.022;12.114;2023-01-16T08:10:55;95934.22;;;2.16;100.00
18795;BME280;29610;49.022;12.114;2023-01-16T08:13:26;95920.69;;;2.21;100.00
18795;BME280;29610;49.022;12.114;2023-01-16T08:16:09;95910.28;;;2.28;100.00
18795;BME280;29610;49.022;12.114;2023-01-16T08:18:38;95912.81;;;2.25;100.00
18795;BME280;29610;49.022;12.114;2023-01-16T08:21:07;95902.75;;;2.39;100.00
18795;BME280;29610;49.022;12.114;2023-01-16T08:23:35;95891.38;;;2.33;100.00
18795;BME280;29610;49.022;12.114;2023-01-16T08:26:06;95889.81;;;2.32;100.00
18795;BME280;29610;49.022;12.114;2023-01-16T08:28:35;95888.69;;;2.33;100.00
18795;BME280;29610;49.022;12.114;2023-01-16T08:31:05;95869.50;;;2.48;100.00
18795;BME280;29610;49.022;12.114;2023-01-16T08:33:36;95865.69;;;2.49;100.00
18795;BME280;29610;49.022;12.114;2023-01-16T08:36:08;95859.41;;;2.62;100.00
18795;BME280;29610;49.022;12.114;2023-01-16T08:38:38;95848.22;;;2.52;100.00
18795;BME280;29610;49.022;12.114;2023-01-16T08:41:07;95836.88;;;2.55;100.00
18795;BME280;29610;49.022;12.114;2023-01-16T08:43:57;95836.41;;;2.61;100.00
18795;BME280;29610;49.022;12.114;2023-01-16T08:46:50;95830.84;;;2.75;100.00
18795;BME280;29610;49.022;12.114;2023-01-16T08:49:40;95820.28;;;2.78;100.00
18795;BME280;29610;49.022;12.114;2023-01-16T08:52:27;95808.78;;;2.95;100.00
18795;BME280;29610;49.022;12.114;2023-01-16T08:54:58;95803.84;;;3.06;100.00
18795;BME280;29610;49.022;12.114;2023-01-16T08:57:28;95807.50;;;2.92;100.00
18795;BME280;29610;49.022;12.114;2023-01-16T08:59:57;95807.16;;;3.11;100.00
18795;BME280;29610;49.022;12.114;2023-01-16T09:02:28;95800.03;;;3.07;100.00
18795;BME280;29610;49.022;12.114;2023-01-16T09:05:01;95799.56;;;3.22;100.00
18795;BME280;29610;49.022;12.114;2023-01-16T09:07:35;95793.06;;;3.31;100.00
18795;BME280;29610;49.022;12.114;2023-01-16T09:10:06;95791.00;;;3.37;100.00
18795;BME280;29610;49.022;12.114;2023-01-16T09:12:37;95791.28;;;3.44;100.00
18795;BME280;29610;49.022;12.114;2023-01-16T09:15:24;95786.22;;;3.42;100.00
18795;BME280;29610;49.022;12.114;2023-01-16T09:17:58;95780.00;;;3.59;100.00
18795;BME280;29610;49.022;12.114;2023-01-16T09:20:30;95773.97;;;3.62;100.00
18795;BME280;29610;49.022;12.114;2023-01-16T09:23:03;95771.78;;;3.64;100.00
18795;BME280;29610;49.022;12.114;2023-01-16T09:25:33;95773.19;;;3.61;100.00
18795;BME280;29610;49.022;12.114;2023-01-16T09:28:01;95763.88;;;3.88;100.00
18795;BME280;29610;49.022;12.114;2023-01-16T09:30:31;95759.31;;;3.88;100.00
18795;BME280;29610;49.022;12.114;2023-01-16T09:32:59;95765.38;;;4.06;100.00
18795;BME280;29610;49.022;12.114;2023-01-16T09:35:30;95755.88;;;4.08;100.00
18795;BME280;29610;49.022;12.114;2023-01-16T09:38:02;95747.72;;;4.17;100.00
18795;BME280;29610;49.022;12.114;2023-01-16T09:40:37;95737.59;;;4.22;100.00
18795;BME280;29610;49.022;12.114;2023-01-16T09:43:35;95723.81;;;4.24;100.00
18795;BME280;29610;49.022;12.114;2023-01-16T09:46:18;95708.59;;;4.28;100.00
18795;BME280;29610;49.022;12.114;2023-01-16T09:48:54;95696.47;;;4.22;100.00
18795;BME280;29610;49.022;12.114;2023-01-16T09:51:31;95695.88;;;4.37;100.00
18795;BME280;29610;49.022;12.114;2023-01-16T09:54:09;95684.47;;;4.40;100.00
18795;BME280;29610;49.022;12.114;2023-01-16T09:57:00;95671.16;;;4.43;100.00
18795;BME280;29610;49.022;12.114;2023-01-16T09:59:51;95662.19;;;4.51;100.00
18795;BME280;29610;49.022;12.114;2023-01-16T10:02:26;95641.06;;;4.62;100.00
18795;BME280;29610;49.022;12.114;2023-01-16T10:04:56;95621.13;;;4.75;100.00
18795;BME280;29610;49.022;12.114;2023-01-16T10:07:49;95615.53;;;4.80;100.00
18795;BME280;29610;49.022;12.114;2023-01-16T10:10:36;95604.63;;;4.65;100.00
18795;BME280;29610;49.022;12.114;2023-01-16T10:13:37;95608.34;;;4.84;100.00
18795;BME280;29610;49.022;12.114;2023-01-16T10:16:22;95605.66;;;4.84;100.00
18795;BME280;29610;49.022;12.114;2023-01-16T10:19:05;95595.47;;;4.90;100.00
18795;BME280;29610;49.022;12.114;2023-01-16T10:22:01;95586.50;;;4.98;100.00
18795;BME280;29610;49.022;12.114;2023-01-16T10:24:52;95564.84;;;5.06;100.00
18795;BME280;29610;49.022;12.114;2023-01-16T10:27:33;95559.81;;;5.17;100.00
18795;BME280;29610;49.022;12.114;2023-01-16T10:30:14;95545.56;;;5.16;100.00
18795;BME280;29610;49.022;12.114;2023-01-16T10:32:54;95532.63;;;5.34;100.00
18795;BME280;29610;49.022;12.114;2023-01-16T10:35:32;95529.47;;;5.44;100.00
18795;BME280;29610;49.022;12.114;2023-01-16T10:38:21;95517.69;;;5.48;100.00
18795;BME280;29610;49.022;12.114;2023-01-16T10:40:59;95506.47;;;5.46;100.00
18795;BME280;29610;49.022;12.114;2023-01-16T10:43:38;95504.56;;;5.35;100.00
18795;BME280;29610;49.022;12.114;2023-01-16T10:46:26;95491.72;;;5.56;100.00
18795;BME280;29610;49.022;12.114;2023-01-16T10:49:19;95484.59;;;5.75;100.00
18795;BME280;29610;49.022;12.114;2023-01-16T10:52:05;95473.75;;;5.87;100.00
18795;BME280;29610;49.022;12.114;2023-01-16T10:54:34;95469.19;;;6.04;100.00
18795;BME280;29610;49.022;12.114;2023-01-16T10:57:14;95463.09;;;6.07;100.00
18795;BME280;29610;49.022;12.114;2023-01-16T10:59:46;95455.41;;;6.21;100.00
18795;BME280;29610;49.022;12.114;2023-01-16T11:02:27;95441.91;;;6.21;100.00
18795;BME280;29610;49.022;12.114;2023-01-16T11:04:56;95430.00;;;6.22;100.00
18795;BME280;29610;49.022;12.114;2023-01-16T11:07:29;95425.53;;;6.45;100.00
18795;BME280;29610;49.022;12.114;2023-01-16T11:09:58;95412.16;;;6.33;100.00
18795;BME280;29610;49.022;12.114;2023-01-16T11:12:31;95410.25;;;6.33;100.00
18795;BME280;29610;49.022;12.114;2023-01-16T11:15:21;95393.34;;;6.52;100.00
18795;BME280;29610;49.022;12.114;2023-01-16T11:18:30;95375.09;;;6.80;100.00
18795;BME280;29610;49.022;12.114;2023-01-16T11:21:07;95373.69;;;6.86;100.00
18795;BME280;29610;49.022;12.114;2023-01-16T11:23:44;95368.34;;;6.89;100.00
18795;BME280;29610;49.022;12.114;2023-01-16T11:26:16;95363.63;;;7.02;100.00
18795;BME280;29610;49.022;12.114;2023-01-16T11:28:48;95356.38;;;7.06;100.00
18795;BME280;29610;49.022;12.114;2023-01-16T11:31:21;95345.44;;;7.18;100.00
18795;BME280;29610;49.022;12.114;2023-01-16T11:33:56;95344.63;;;7.56;100.00
18795;BME280;29610;49.022;12.114;2023-01-16T11:36:32;95330.41;;;7.81;100.00
18795;BME280;29610;49.022;12.114;2023-01-16T11:39:04;95328.72;;;7.73;100.00
18795;BME280;29610;49.022;12.114;2023-01-16T11:41:37;95314.53;;;7.57;100.00
18795;BME280;29610;49.022;12.114;2023-01-16T11:44:15;95315.25;;;7.54;100.00
18795;BME280;29610;49.022;12.114;2023-01-16T11:47:02;95310.84;;;7.46;100.00
18795;BME280;29610;49.022;12.114;2023-01-16T11:49:36;95295.56;;;7.76;100.00
18795;BME280;29610;49.022;12.114;2023-01-16T11:52:12;95291.22;;;7.49;100.00
18795;BME280;29610;49.022;12.114;2023-01-16T11:54:41;95281.16;;;7.69;100.00
18795;BME280;29610;49.022;12.114;2023-01-16T11:57:29;95265.28;;;7.67;100.00
18795;BME280;29610;49.022;12.114;2023-01-16T12:00:30;95276.53;;;7.47;100.00
18795;BME280;29610;49.022;12.114;2023-01-16T12:06:40;95243.84;;;7.55;100.00
18795;BME280;29610;49.022;12.114;2023-01-16T12:09:40;95237.97;;;7.72;100.00
18795;BME280;29610;49.022;12.114;2023-01-16T12:12:18;95231.19;;;7.59;100.00
18795;BME280;29610;49.022;12.114;2023-01-16T12:15:16;95214.91;;;7.56;100.00
18795;BME280;29610;49.022;12.114;2023-01-16T12:18:10;95213.38;;;7.81;100.00
18795;BME280;29610;49.022;12.114;2023-01-16T12:20:53;95194.38;;;7.77;100.00
18795;BME280;29610;49.022;12.114;2023-01-16T12:23:48;95200.38;;;7.64;100.00
18795;BME280;29610;49.022;12.114;2023-01-16T12:26:28;95189.81;;;7.81;100.00
18795;BME280;29610;49.022;12.114;2023-01-16T12:29:14;95170.13;;;7.55;100.00
18795;BME280;29610;49.022;12.114;2023-01-16T12:32:05;95149.16;;;7.48;100.00
18795;BME280;29610;49.022;12.114;2023-01-16T12:35:09;95126.34;;;7.45;100.00
18795;BME280;29610;49.022;12.114;2023-01-16T12:38:08;95120.75;;;7.58;100.00
18795;BME280;29610;49.022;12.114;2023-01-16T12:41:04;95107.81;;;7.70;100.00
18795;BME280;29610;49.022;12.114;2023-01-16T12:44:27;95100.00;;;7.65;100.00
18795;BME280;29610;49.022;12.114;2023-01-16T12:47:21;95078.25;;;7.84;100.00
18795;BME280;29610;49.022;12.114;2023-01-16T12:50:06;95067.63;;;7.98;100.00
18795;BME280;29610;49.022;12.114;2023-01-16T12:52:55;95039.34;;;7.92;100.00
18795;BME280;29610;49.022;12.114;2023-01-16T12:55:41;95023.97;;;8.00;100.00
18795;BME280;29610;49.022;12.114;2023-01-16T12:58:32;95015.47;;;7.98;100.00
18795;BME280;29610;49.022;12.114;2023-01-16T13:01:10;95013.94;;;8.00;100.00
18795;BME280;29610;49.022;12.114;2023-01-16T13:03:52;95014.22;;;7.92;100.00
18795;BME280;29610;49.022;12.114;2023-01-16T13:06:34;95007.53;;;7.82;100.00
18795;BME280;29610;49.022;12.114;2023-01-16T13:09:11;95019.38;;;8.00;100.00
18795;BME280;29610;49.022;12.114;2023-01-16T13:11:59;95039.56;;;8.10;100.00
18795;BME280;29610;49.022;12.114;2023-01-16T13:14:50;95048.19;;;7.89;100.00
18795;BME280;29610;49.022;12.114;2023-01-16T13:17:27;95055.69;;;7.99;100.00
18795;BME280;29610;49.022;12.114;2023-01-16T13:20:05;95055.09;;;7.83;100.00
18795;BME280;29610;49.022;12.114;2023-01-16T13:22:43;95050.44;;;7.84;100.00
18795;BME280;29610;49.022;12.114;2023-01-16T13:25:21;95050.72;;;7.75;100.00
18795;BME280;29610;49.022;12.114;2023-01-16T13:27:57;95049.66;;;7.83;100.00
18795;BME280;29610;49.022;12.114;2023-01-16T13:30:29;95053.97;;;7.88;100.00
18795;BME280;29610;49.022;12.114;2023-01-16T13:33:03;95050.22;;;7.96;100.00
18795;BME280;29610;49.022;12.114;2023-01-16T13:35:47;95064.59;;;8.03;100.00
18795;BME280;29610;49.022;12.114;2023-01-16T13:38:54;95068.41;;;7.99;100.00
18795;BME280;29610;49.022;12.114;2023-01-16T13:41:33;95080.03;;;8.03;100.00
18795;BME280;29610;49.022;12.114;2023-01-16T13:44:13;95083.72;;;7.88;100.00